sensor_id;sensor_type;location;lat;lon;timestamp;P1;durP1;ratioP1;P2;durP2;ratioP2
15645;SDS011;7922;43.622;1.476;2023-12-22T00:01:55;17.47;;;4.40;;
15645;SDS011;7922;43.622;1.476;2023-12-22T00:04:21;24.83;;;5.53;;
15645;SDS011;7922;43.622;1.476;2023-12-22T00:06:46;15.40;;;4.67;;
15645;SDS011;7922;43.622;1.476;2023-12-22T00:09:11;20.63;;;5.87;;
15645;SDS011;7922;43.622;1.476;2023-12-22T00:11:36;20.33;;;4.80;;
15645;SDS011;7922;43.622;1.476;2023-12-22T00:14:02;24.90;;;5.20;;
15645;SDS011;7922;43.622;1.476;2023-12-22T00:16:27;25.17;;;5.20;;
15645;SDS011;7922;43.622;1.476;2023-12-22T00:18:53;16.33;;;4.40;;
15645;SDS011;7922;43.622;1.476;2023-12-22T00:21:18;19.20;;;4.53;;
15645;SDS011;7922;43.622;1.476;2023-12-22T00:23:43;20.03;;;4.83;;
15645;SDS011;7922;43.622;1.476;2023-12-22T00:26:08;19.47;;;4.67;;
15645;SDS011;7922;43.622;1.476;2023-12-22T00:28:34;20.30;;;4.87;;
15645;SDS011;7922;43.622;1.476;2023-12-22T00:30:59;21.60;;;5.17;;
15645;SDS011;7922;43.622;1.476;2023-12-22T00:33:25;16.13;;;4.80;;
15645;SDS011;7922;43.622;1.476;2023-12-22T00:35:50;18.23;;;4.83;;
15645;SDS011;7922;43.622;1.476;2023-12-22T00:38:16;18.63;;;4.87;;
15645;SDS011;7922;43.622;1.476;2023-12-22T00:40:41;21.43;;;5.03;;
15645;SDS011;7922;43.622;1.476;2023-12-22T00:43:06;19.27;;;4.63;;
15645;SDS011;7922;43.622;1.476;2023-12-22T00:45:32;22.97;;;5.03;;
15645;SDS011;7922;43.622;1.476;2023-12-22T00:47:57;22.60;;;4.87;;
15645;SDS011;7922;43.622;1.476;2023-12-22T00:50:22;18.67;;;4.90;;
15645;SDS011;7922;43.622;1.476;2023-12-22T00:52:48;30.97;;;5.77;;
15645;SDS011;7922;43.622;1.476;2023-12-22T00:55:13;26.47;;;5.93;;
15645;SDS011;7922;43.622;1.476;2023-12-22T00:57:38;22.97;;;4.87;;
15645;SDS011;7922;43.622;1.476;2023-12-22T01:00:04;20.17;;;5.10;;
15645;SDS011;7922;43.622;1.476;2023-12-22T01:02:29;23.93;;;4.50;;
15645;SDS011;7922;43.622;1.476;2023-12-22T01:04:55;21.57;;;5.00;;
15645;SDS011;7922;43.622;1.476;2023-12-22T01:07:20;24.30;;;4.67;;
15645;SDS011;7922;43.622;1.476;2023-12-22T01:09:45;15.77;;;4.63;;
15645;SDS011;7922;43.622;1.476;2023-12-22T01:12:10;19.83;;;4.33;;
15645;SDS011;7922;43.622;1.476;2023-12-22T01:14:36;15.53;;;4.00;;
15645;SDS011;7922;43.622;1.476;2023-12-22T01:17:01;16.13;;;4.07;;
15645;SDS011;7922;43.622;1.476;2023-12-22T01:19:26;16.97;;;3.33;;
15645;SDS011;7922;43.622;1.476;2023-12-22T01:21:52;12.70;;;3.50;;
15645;SDS011;7922;43.622;1.476;2023-12-22T01:24:17;13.20;;;3.60;;
15645;SDS011;7922;43.622;1.476;2023-12-22T01:26:42;13.00;;;3.27;;
15645;SDS011;7922;43.622;1.476;2023-12-22T01:29:08;12.43;;;2.93;;
15645;SDS011;7922;43.622;1.476;2023-12-22T01:31:33;12.83;;;3.40;;
15645;SDS011;7922;43.622;1.476;2023-12-22T01:33:58;12.33;;;3.40;;
15645;SDS011;7922;43.622;1.476;2023-12-22T01:36:23;16.30;;;4.60;;
15645;SDS011;7922;43.622;1.476;2023-12-22T01:38:49;16.27;;;3.43;;
15645;SDS011;7922;43.622;1.476;2023-12-22T01:41:14;15.77;;;3.30;;
15645;SDS011;7922;43.622;1.476;2023-12-22T01:43:39;10.70;;;3.17;;
15645;SDS011;7922;43.622;1.476;2023-12-22T01:46:05;14.00;;;3.17;;
15645;SDS011;7922;43.622;1.476;2023-12-22T01:48:31;15.97;;;3.73;;
15645;SDS011;7922;43.622;1.476;2023-12-22T01:50:56;14.47;;;3.87;;
15645;SDS011;7922;43.622;1.476;2023-12-22T01:53:24;10.30;;;2.87;;
15645;SDS011;7922;43.622;1.476;2023-12-22T01:55:50;13.47;;;3.53;;
15645;SDS011;7922;43.622;1.476;2023-12-22T01:58:17;11.20;;;3.00;;
15645;SDS011;7922;43.622;1.476;2023-12-22T02:00:47;9.00;;;2.63;;
15645;SDS011;7922;43.622;1.476;2023-12-22T02:03:12;9.93;;;2.30;;
15645;SDS011;7922;43.622;1.476;2023-12-22T02:05:40;6.43;;;2.20;;
15645;SDS011;7922;43.622;1.476;2023-12-22T02:08:06;10.03;;;1.87;;
15645;SDS011;7922;43.622;1.476;2023-12-22T02:10:31;6.23;;;1.93;;
15645;SDS011;7922;43.622;1.476;2023-12-22T02:12:56;8.47;;;2.13;;
15645;SDS011;7922;43.622;1.476;2023-12-22T02:15:21;12.67;;;3.17;;
15645;SDS011;7922;43.622;1.476;2023-12-22T02:18:02;9.67;;;2.03;;
15645;SDS011;7922;43.622;1.476;2023-12-22T02:20:32;5.23;;;2.23;;
15645;SDS011;7922;43.622;1.476;2023-12-22T02:22:57;7.83;;;2.17;;
15645;SDS011;7922;43.622;1.476;2023-12-22T02:25:23;7.90;;;2.10;;
15645;SDS011;7922;43.622;1.476;2023-12-22T02:27:49;7.50;;;1.93;;
15645;SDS011;7922;43.622;1.476;2023-12-22T02:30:24;5.57;;;1.97;;
15645;SDS011;7922;43.622;1.476;2023-12-22T02:32:52;6.03;;;1.70;;
15645;SDS011;7922;43.622;1.476;2023-12-22T02:35:22;8.40;;;1.50;;
15645;SDS011;7922;43.622;1.476;2023-12-22T02:37:50;7.20;;;1.50;;
15645;SDS011;7922;43.622;1.476;2023-12-22T02:40:17;6.73;;;1.60;;
15645;SDS011;7922;43.622;1.476;2023-12-22T02:42:43;4.17;;;1.40;;
15645;SDS011;7922;43.622;1.476;2023-12-22T02:45:15;5.00;;;1.30;;
15645;SDS011;7922;43.622;1.476;2023-12-22T02:47:42;4.17;;;1.60;;
15645;SDS011;7922;43.622;1.476;2023-12-22T02:50:08;5.37;;;1.50;;
15645;SDS011;7922;43.622;1.476;2023-12-22T02:52:34;3.97;;;1.30;;
15645;SDS011;7922;43.622;1.476;2023-12-22T02:55:00;5.23;;;1.80;;
15645;SDS011;7922;43.622;1.476;2023-12-22T02:57:25;3.70;;;1.40;;
15645;SDS011;7922;43.622;1.476;2023-12-22T02:59:50;4.63;;;2.27;;
15645;SDS011;7922;43.622;1.476;2023-12-22T03:02:16;3.17;;;1.50;;
15645;SDS011;7922;43.622;1.476;2023-12-22T03:04:41;3.70;;;1.30;;
15645;SDS011;7922;43.622;1.476;2023-12-22T03:07:07;3.87;;;1.50;;
15645;SDS011;7922;43.622;1.476;2023-12-22T03:09:32;4.77;;;1.80;;
15645;SDS011;7922;43.622;1.476;2023-12-22T03:11:57;5.63;;;1.67;;
15645;SDS011;7922;43.622;1.476;2023-12-22T03:14:23;4.20;;;1.60;;
15645;SDS011;7922;43.622;1.476;2023-12-22T03:16:48;6.13;;;1.40;;
15645;SDS011;7922;43.622;1.476;2023-12-22T03:19:13;5.07;;;1.37;;
15645;SDS011;7922;43.622;1.476;2023-12-22T03:21:38;2.97;;;1.10;;
15645;SDS011;7922;43.622;1.476;2023-12-22T03:24:04;4.17;;;1.27;;
15645;SDS011;7922;43.622;1.476;2023-12-22T03:26:29;4.93;;;1.10;;
15645;SDS011;7922;43.622;1.476;2023-12-22T03:28:54;1.77;;;1.13;;
15645;SDS011;7922;43.622;1.476;2023-12-22T03:31:20;4.47;;;1.07;;
15645;SDS011;7922;43.622;1.476;2023-12-22T03:33:45;3.97;;;1.20;;
15645;SDS011;7922;43.622;1.476;2023-12-22T03:36:10;1.67;;;1.10;;
15645;SDS011;7922;43.622;1.476;2023-12-22T03:38:36;2.90;;;0.80;;
15645;SDS011;7922;43.622;1.476;2023-12-22T03:41:01;4.37;;;0.77;;
15645;SDS011;7922;43.622;1.476;2023-12-22T03:43:26;1.40;;;0.70;;
15645;SDS011;7922;43.622;1.476;2023-12-22T03:45:51;3.00;;;0.90;;
15645;SDS011;7922;43.622;1.476;2023-12-22T03:48:17;4.57;;;0.93;;
15645;SDS011;7922;43.622;1.476;2023-12-22T03:50:42;1.93;;;0.80;;
15645;SDS011;7922;43.622;1.476;2023-12-22T03:53:07;2.17;;;1.10;;
15645;SDS011;7922;43.622;1.476;2023-12-22T03:55:33;2.73;;;1.20;;
15645;SDS011;7922;43.622;1.476;2023-12-22T03:57:58;2.30;;;1.10;;
15645;SDS011;7922;43.622;1.476;2023-12-22T04:00:23;2.63;;;1.13;;
15645;SDS011;7922;43.622;1.476;2023-12-22T04:02:48;2.13;;;0.93;;
15645;SDS011;7922;43.622;1.476;2023-12-22T04:05:14;3.20;;;0.87;;
15645;SDS011;7922;43.622;1.476;2023-12-22T04:07:39;2.93;;;1.00;;
15645;SDS011;7922;43.622;1.476;2023-12-22T04:10:04;3.20;;;1.10;;
15645;SDS011;7922;43.622;1.476;2023-12-22T04:12:30;3.93;;;1.00;;
15645;SDS011;7922;43.622;1.476;2023-12-22T04:14:55;3.77;;;1.10;;
15645;SDS011;7922;43.622;1.476;2023-12-22T04:17:20;2.40;;;0.73;;
15645;SDS011;7922;43.622;1.476;2023-12-22T04:19:46;3.57;;;1.00;;
15645;SDS011;7922;43.622;1.476;2023-12-22T04:22:11;1.53;;;1.00;;
15645;SDS011;7922;43.622;1.476;2023-12-22T04:24:36;3.27;;;1.00;;
15645;SDS011;7922;43.622;1.476;2023-12-22T04:27:02;2.33;;;1.20;;
15645;SDS011;7922;43.622;1.476;2023-12-22T04:29:27;3.43;;;1.37;;
15645;SDS011;7922;43.622;1.476;2023-12-22T04:31:52;3.83;;;1.30;;
15645;SDS011;7922;43.622;1.476;2023-12-22T04:34:18;3.80;;;1.10;;
15645;SDS011;7922;43.622;1.476;2023-12-22T04:36:43;3.80;;;1.10;;
15645;SDS011;7922;43.622;1.476;2023-12-22T04:39:08;2.07;;;1.03;;
15645;SDS011;7922;43.622;1.476;2023-12-22T04:41:33;2.03;;;0.80;;
15645;SDS011;7922;43.622;1.476;2023-12-22T04:43:59;0.87;;;0.70;;
15645;SDS011;7922;43.622;1.476;2023-12-22T04:46:24;3.13;;;0.80;;
15645;SDS011;7922;43.622;1.476;2023-12-22T04:48:49;2.70;;;0.80;;
15645;SDS011;7922;43.622;1.476;2023-12-22T04:51:14;3.23;;;0.80;;
15645;SDS011;7922;43.622;1.476;2023-12-22T04:53:40;2.47;;;0.90;;
15645;SDS011;7922;43.622;1.476;2023-12-22T04:56:05;0.80;;;0.73;;
15645;SDS011;7922;43.622;1.476;2023-12-22T04:58:31;1.13;;;0.60;;
15645;SDS011;7922;43.622;1.476;2023-12-22T05:00:56;1.57;;;0.50;;
15645;SDS011;7922;43.622;1.476;2023-12-22T05:03:22;1.57;;;0.60;;
15645;SDS011;7922;43.622;1.476;2023-12-22T05:05:47;0.70;;;0.60;;
15645;SDS011;7922;43.622;1.476;2023-12-22T05:08:12;2.30;;;0.70;;
15645;SDS011;7922;43.622;1.476;2023-12-22T05:10:38;1.30;;;0.70;;
15645;SDS011;7922;43.622;1.476;2023-12-22T05:13:03;0.93;;;0.70;;
15645;SDS011;7922;43.622;1.476;2023-12-22T05:15:28;0.70;;;0.50;;
15645;SDS011;7922;43.622;1.476;2023-12-22T05:17:54;0.70;;;0.70;;
15645;SDS011;7922;43.622;1.476;2023-12-22T05:20:20;0.97;;;0.60;;
15645;SDS011;7922;43.622;1.476;2023-12-22T05:22:45;0.60;;;0.50;;
15645;SDS011;7922;43.622;1.476;2023-12-22T05:25:12;0.80;;;0.63;;
15645;SDS011;7922;43.622;1.476;2023-12-22T05:27:38;1.20;;;0.43;;
15645;SDS011;7922;43.622;1.476;2023-12-22T05:30:03;0.93;;;0.53;;
15645;SDS011;7922;43.622;1.476;2023-12-22T05:32:29;1.30;;;0.57;;
15645;SDS011;7922;43.622;1.476;2023-12-22T05:34:55;0.47;;;0.47;;
15645;SDS011;7922;43.622;1.476;2023-12-22T05:37:20;0.73;;;0.53;;
15645;SDS011;7922;43.622;1.476;2023-12-22T05:39:45;0.30;;;0.30;;
15645;SDS011;7922;43.622;1.476;2023-12-22T05:42:11;0.67;;;0.40;;
15645;SDS011;7922;43.622;1.476;2023-12-22T05:44:36;0.77;;;0.50;;
15645;SDS011;7922;43.622;1.476;2023-12-22T05:47:02;0.60;;;0.50;;
15645;SDS011;7922;43.622;1.476;2023-12-22T05:49:27;1.17;;;0.60;;
15645;SDS011;7922;43.622;1.476;2023-12-22T05:51:52;1.37;;;0.60;;
15645;SDS011;7922;43.622;1.476;2023-12-22T05:54:17;2.13;;;0.70;;
15645;SDS011;7922;43.622;1.476;2023-12-22T05:56:43;2.60;;;1.20;;
15645;SDS011;7922;43.622;1.476;2023-12-22T05:59:08;4.07;;;1.07;;
15645;SDS011;7922;43.622;1.476;2023-12-22T06:01:33;3.17;;;1.10;;
15645;SDS011;7922;43.622;1.476;2023-12-22T06:03:58;2.97;;;1.30;;
15645;SDS011;7922;43.622;1.476;2023-12-22T06:06:24;2.70;;;1.10;;
15645;SDS011;7922;43.622;1.476;2023-12-22T06:08:49;5.23;;;1.90;;
15645;SDS011;7922;43.622;1.476;2023-12-22T06:11:15;2.20;;;1.23;;
15645;SDS011;7922;43.622;1.476;2023-12-22T06:13:40;3.67;;;1.07;;
15645;SDS011;7922;43.622;1.476;2023-12-22T06:16:05;2.50;;;1.17;;
15645;SDS011;7922;43.622;1.476;2023-12-22T06:18:31;2.83;;;1.10;;
15645;SDS011;7922;43.622;1.476;2023-12-22T06:20:56;2.67;;;1.10;;
15645;SDS011;7922;43.622;1.476;2023-12-22T06:23:23;1.40;;;0.70;;
15645;SDS011;7922;43.622;1.476;2023-12-22T06:25:49;2.40;;;0.90;;
15645;SDS011;7922;43.622;1.476;2023-12-22T06:28:14;1.17;;;0.60;;
15645;SDS011;7922;43.622;1.476;2023-12-22T06:30:39;1.60;;;0.70;;
15645;SDS011;7922;43.622;1.476;2023-12-22T06:33:04;1.43;;;0.70;;
15645;SDS011;7922;43.622;1.476;2023-12-22T06:35:30;0.63;;;0.60;;
15645;SDS011;7922;43.622;1.476;2023-12-22T06:37:55;1.30;;;0.70;;
15645;SDS011;7922;43.622;1.476;2023-12-22T06:40:20;0.73;;;0.70;;
15645;SDS011;7922;43.622;1.476;2023-12-22T06:42:46;1.27;;;0.97;;
15645;SDS011;7922;43.622;1.476;2023-12-22T06:45:11;0.90;;;0.70;;
15645;SDS011;7922;43.622;1.476;2023-12-22T06:47:36;2.33;;;0.50;;
15645;SDS011;7922;43.622;1.476;2023-12-22T06:50:02;1.53;;;0.70;;
15645;SDS011;7922;43.622;1.476;2023-12-22T06:52:28;1.10;;;0.73;;
15645;SDS011;7922;43.622;1.476;2023-12-22T06:54:53;4.03;;;2.00;;
15645;SDS011;7922;43.622;1.476;2023-12-22T06:57:19;3.73;;;1.53;;
15645;SDS011;7922;43.622;1.476;2023-12-22T06:59:44;1.83;;;0.97;;
15645;SDS011;7922;43.622;1.476;2023-12-22T07:02:09;1.67;;;0.60;;
15645;SDS011;7922;43.622;1.476;2023-12-22T07:04:34;0.87;;;0.80;;
15645;SDS011;7922;43.622;1.476;2023-12-22T07:07:00;0.57;;;0.50;;
15645;SDS011;7922;43.622;1.476;2023-12-22T07:11:51;0.40;;;0.40;;
15645;SDS011;7922;43.622;1.476;2023-12-22T07:14:16;0.50;;;0.50;;
15645;SDS011;7922;43.622;1.476;2023-12-22T07:16:42;0.50;;;0.50;;
15645;SDS011;7922;43.622;1.476;2023-12-22T07:19:08;0.70;;;0.60;;
15645;SDS011;7922;43.622;1.476;2023-12-22T07:21:33;0.50;;;0.50;;
15645;SDS011;7922;43.622;1.476;2023-12-22T07:23:59;1.20;;;0.70;;
15645;SDS011;7922;43.622;1.476;2023-12-22T07:26:24;0.73;;;0.73;;
15645;SDS011;7922;43.622;1.476;2023-12-22T07:28:50;1.03;;;0.90;;
15645;SDS011;7922;43.622;1.476;2023-12-22T07:31:15;1.10;;;1.00;;
15645;SDS011;7922;43.622;1.476;2023-12-22T07:33:40;2.30;;;0.80;;
15645;SDS011;7922;43.622;1.476;2023-12-22T07:36:06;0.70;;;0.60;;
15645;SDS011;7922;43.622;1.476;2023-12-22T07:38:32;0.90;;;0.70;;
15645;SDS011;7922;43.622;1.476;2023-12-22T07:40:57;0.70;;;0.40;;
15645;SDS011;7922;43.622;1.476;2023-12-22T07:43:22;0.70;;;0.57;;
15645;SDS011;7922;43.622;1.476;2023-12-22T07:45:48;0.43;;;0.40;;
15645;SDS011;7922;43.622;1.476;2023-12-22T07:48:13;0.93;;;0.50;;
15645;SDS011;7922;43.622;1.476;2023-12-22T07:50:38;0.50;;;0.50;;
15645;SDS011;7922;43.622;1.476;2023-12-22T07:53:03;0.60;;;0.30;;
15645;SDS011;7922;43.622;1.476;2023-12-22T07:55:29;0.50;;;0.50;;
15645;SDS011;7922;43.622;1.476;2023-12-22T07:57:54;0.40;;;0.40;;
15645;SDS011;7922;43.622;1.476;2023-12-22T08:00:19;0.40;;;0.40;;
15645;SDS011;7922;43.622;1.476;2023-12-22T08:02:45;0.50;;;0.50;;
15645;SDS011;7922;43.622;1.476;2023-12-22T08:05:10;0.97;;;0.63;;
15645;SDS011;7922;43.622;1.476;2023-12-22T08:07:35;1.70;;;1.60;;
15645;SDS011;7922;43.622;1.476;2023-12-22T08:10:01;1.50;;;1.10;;
15645;SDS011;7922;43.622;1.476;2023-12-22T08:12:27;1.23;;;0.87;;
15645;SDS011;7922;43.622;1.476;2023-12-22T08:14:53;1.73;;;1.10;;
15645;SDS011;7922;43.622;1.476;2023-12-22T08:17:18;1.37;;;1.27;;
15645;SDS011;7922;43.622;1.476;2023-12-22T08:19:44;1.20;;;1.00;;
15645;SDS011;7922;43.622;1.476;2023-12-22T08:22:09;1.83;;;1.10;;
15645;SDS011;7922;43.622;1.476;2023-12-22T08:24:35;1.27;;;1.13;;
15645;SDS011;7922;43.622;1.476;2023-12-22T08:27:00;3.57;;;1.30;;
15645;SDS011;7922;43.622;1.476;2023-12-22T08:29:25;2.20;;;1.40;;
15645;SDS011;7922;43.622;1.476;2023-12-22T08:31:51;2.73;;;1.57;;
15645;SDS011;7922;43.622;1.476;2023-12-22T08:34:16;1.60;;;1.30;;
15645;SDS011;7922;43.622;1.476;2023-12-22T08:36:42;3.90;;;1.70;;
15645;SDS011;7922;43.622;1.476;2023-12-22T08:39:07;1.83;;;1.00;;
15645;SDS011;7922;43.622;1.476;2023-12-22T08:41:32;1.20;;;1.20;;
15645;SDS011;7922;43.622;1.476;2023-12-22T08:43:58;1.80;;;1.07;;
15645;SDS011;7922;43.622;1.476;2023-12-22T08:46:23;2.20;;;1.10;;
15645;SDS011;7922;43.622;1.476;2023-12-22T08:48:48;2.10;;;1.20;;
15645;SDS011;7922;43.622;1.476;2023-12-22T08:51:14;1.00;;;0.90;;
15645;SDS011;7922;43.622;1.476;2023-12-22T08:53:39;2.07;;;1.30;;
15645;SDS011;7922;43.622;1.476;2023-12-22T08:56:04;2.03;;;0.90;;
15645;SDS011;7922;43.622;1.476;2023-12-22T08:58:29;1.43;;;1.20;;
15645;SDS011;7922;43.622;1.476;2023-12-22T09:00:55;0.80;;;0.80;;
15645;SDS011;7922;43.622;1.476;2023-12-22T09:03:20;1.47;;;0.90;;
15645;SDS011;7922;43.622;1.476;2023-12-22T09:05:45;1.60;;;1.10;;
15645;SDS011;7922;43.622;1.476;2023-12-22T09:08:11;1.33;;;0.70;;
15645;SDS011;7922;43.622;1.476;2023-12-22T09:10:36;1.37;;;0.87;;
15645;SDS011;7922;43.622;1.476;2023-12-22T09:13:01;3.10;;;1.00;;
15645;SDS011;7922;43.622;1.476;2023-12-22T09:15:27;2.23;;;0.80;;
15645;SDS011;7922;43.622;1.476;2023-12-22T09:17:52;1.40;;;0.80;;
15645;SDS011;7922;43.622;1.476;2023-12-22T09:20:17;2.00;;;1.30;;
15645;SDS011;7922;43.622;1.476;2023-12-22T09:22:43;1.67;;;1.00;;
15645;SDS011;7922;43.622;1.476;2023-12-22T09:25:08;1.10;;;0.90;;
15645;SDS011;7922;43.622;1.476;2023-12-22T09:27:33;1.50;;;1.10;;
15645;SDS011;7922;43.622;1.476;2023-12-22T09:29:58;1.47;;;0.90;;
15645;SDS011;7922;43.622;1.476;2023-12-22T09:32:24;0.80;;;0.80;;
15645;SDS011;7922;43.622;1.476;2023-12-22T09:34:49;1.57;;;1.00;;
15645;SDS011;7922;43.622;1.476;2023-12-22T09:37:14;1.53;;;0.90;;
15645;SDS011;7922;43.622;1.476;2023-12-22T09:39:39;2.43;;;1.40;;
15645;SDS011;7922;43.622;1.476;2023-12-22T09:42:05;2.80;;;1.10;;
15645;SDS011;7922;43.622;1.476;2023-12-22T09:44:31;2.10;;;0.70;;
15645;SDS011;7922;43.622;1.476;2023-12-22T09:46:57;1.37;;;1.10;;
15645;SDS011;7922;43.622;1.476;2023-12-22T09:49:24;0.80;;;0.57;;
15645;SDS011;7922;43.622;1.476;2023-12-22T09:51:50;2.53;;;0.90;;
15645;SDS011;7922;43.622;1.476;2023-12-22T09:54:16;2.20;;;0.70;;
15645;SDS011;7922;43.622;1.476;2023-12-22T09:56:41;0.70;;;0.70;;
15645;SDS011;7922;43.622;1.476;2023-12-22T09:59:10;0.80;;;0.60;;
15645;SDS011;7922;43.622;1.476;2023-12-22T10:01:37;1.67;;;0.70;;
15645;SDS011;7922;43.622;1.476;2023-12-22T10:04:07;1.30;;;0.80;;
15645;SDS011;7922;43.622;1.476;2023-12-22T10:06:34;0.80;;;0.70;;
15645;SDS011;7922;43.622;1.476;2023-12-22T10:08:59;1.00;;;0.67;;
15645;SDS011;7922;43.622;1.476;2023-12-22T10:11:25;0.90;;;0.70;;
15645;SDS011;7922;43.622;1.476;2023-12-22T10:13:53;0.90;;;0.70;;
15645;SDS011;7922;43.622;1.476;2023-12-22T10:16:20;1.30;;;1.00;;
15645;SDS011;7922;43.622;1.476;2023-12-22T10:18:46;2.10;;;0.80;;
15645;SDS011;7922;43.622;1.476;2023-12-22T10:21:11;1.13;;;0.70;;
15645;SDS011;7922;43.622;1.476;2023-12-22T10:23:36;1.23;;;0.70;;
15645;SDS011;7922;43.622;1.476;2023-12-22T10:26:01;1.40;;;0.80;;
15645;SDS011;7922;43.622;1.476;2023-12-22T10:28:27;1.27;;;0.73;;
15645;SDS011;7922;43.622;1.476;2023-12-22T10:30:53;1.17;;;0.80;;
15645;SDS011;7922;43.622;1.476;2023-12-22T10:33:18;0.93;;;0.80;;
15645;SDS011;7922;43.622;1.476;2023-12-22T10:35:43;1.57;;;0.90;;
15645;SDS011;7922;43.622;1.476;2023-12-22T10:38:09;2.20;;;1.30;;
15645;SDS011;7922;43.622;1.476;2023-12-22T10:40:36;2.03;;;1.30;;
15645;SDS011;7922;43.622;1.476;2023-12-22T10:43:02;2.07;;;1.20;;
15645;SDS011;7922;43.622;1.476;2023-12-22T10:45:29;1.87;;;1.67;;
15645;SDS011;7922;43.622;1.476;2023-12-22T10:47:54;1.30;;;0.97;;
15645;SDS011;7922;43.622;1.476;2023-12-22T10:50:19;0.70;;;0.70;;
15645;SDS011;7922;43.622;1.476;2023-12-22T10:52:49;2.00;;;0.70;;
15645;SDS011;7922;43.622;1.476;2023-12-22T10:55:15;1.30;;;0.77;;
15645;SDS011;7922;43.622;1.476;2023-12-22T10:57:41;0.70;;;0.70;;
15645;SDS011;7922;43.622;1.476;2023-12-22T11:00:06;1.67;;;1.00;;
15645;SDS011;7922;43.622;1.476;2023-12-22T11:02:32;0.70;;;0.70;;
15645;SDS011;7922;43.622;1.476;2023-12-22T11:05:01;0.50;;;0.50;;
15645;SDS011;7922;43.622;1.476;2023-12-22T11:07:28;0.90;;;0.67;;
15645;SDS011;7922;43.622;1.476;2023-12-22T11:09:55;1.03;;;0.80;;
15645;SDS011;7922;43.622;1.476;2023-12-22T11:12:24;2.03;;;0.80;;
15645;SDS011;7922;43.622;1.476;2023-12-22T11:14:52;1.20;;;0.70;;
15645;SDS011;7922;43.622;1.476;2023-12-22T11:17:19;2.13;;;0.90;;
15645;SDS011;7922;43.622;1.476;2023-12-22T11:19:47;1.17;;;0.80;;
15645;SDS011;7922;43.622;1.476;2023-12-22T11:22:15;0.70;;;0.67;;
15645;SDS011;7922;43.622;1.476;2023-12-22T11:24:41;1.00;;;0.73;;
15645;SDS011;7922;43.622;1.476;2023-12-22T11:27:09;1.00;;;0.90;;
15645;SDS011;7922;43.622;1.476;2023-12-22T11:29:36;1.10;;;0.73;;
15645;SDS011;7922;43.622;1.476;2023-12-22T11:32:04;1.30;;;0.80;;
15645;SDS011;7922;43.622;1.476;2023-12-22T11:34:31;1.20;;;1.07;;
15645;SDS011;7922;43.622;1.476;2023-12-22T11:37:00;0.93;;;0.70;;
15645;SDS011;7922;43.622;1.476;2023-12-22T11:39:28;1.83;;;1.10;;
15645;SDS011;7922;43.622;1.476;2023-12-22T11:41:54;1.30;;;0.90;;
15645;SDS011;7922;43.622;1.476;2023-12-22T11:44:20;1.60;;;0.87;;
15645;SDS011;7922;43.622;1.476;2023-12-22T11:46:46;2.23;;;1.20;;
15645;SDS011;7922;43.622;1.476;2023-12-22T11:49:11;1.00;;;0.90;;
15645;SDS011;7922;43.622;1.476;2023-12-22T11:51:37;3.03;;;1.40;;
15645;SDS011;7922;43.622;1.476;2023-12-22T11:54:02;1.13;;;1.00;;
15645;SDS011;7922;43.622;1.476;2023-12-22T11:56:28;1.60;;;0.90;;
15645;SDS011;7922;43.622;1.476;2023-12-22T11:58:54;1.03;;;0.80;;
15645;SDS011;7922;43.622;1.476;2023-12-22T12:01:21;2.47;;;1.00;;
15645;SDS011;7922;43.622;1.476;2023-12-22T12:03:49;1.30;;;0.90;;
15645;SDS011;7922;43.622;1.476;2023-12-22T12:08:50;2.17;;;0.87;;
15645;SDS011;7922;43.622;1.476;2023-12-22T12:11:15;2.70;;;0.90;;
15645;SDS011;7922;43.622;1.476;2023-12-22T12:13:42;2.80;;;1.00;;
15645;SDS011;7922;43.622;1.476;2023-12-22T12:16:07;1.07;;;0.80;;
15645;SDS011;7922;43.622;1.476;2023-12-22T12:18:33;1.07;;;0.80;;
15645;SDS011;7922;43.622;1.476;2023-12-22T12:20:59;1.30;;;1.07;;
15645;SDS011;7922;43.622;1.476;2023-12-22T12:23:25;1.47;;;1.37;;
15645;SDS011;7922;43.622;1.476;2023-12-22T12:25:55;0.97;;;0.97;;
15645;SDS011;7922;43.622;1.476;2023-12-22T12:28:30;1.00;;;0.90;;
15645;SDS011;7922;43.622;1.476;2023-12-22T12:31:02;2.70;;;0.80;;
15645;SDS011;7922;43.622;1.476;2023-12-22T12:33:29;1.10;;;0.90;;
15645;SDS011;7922;43.622;1.476;2023-12-22T12:35:58;1.17;;;0.80;;
15645;SDS011;7922;43.622;1.476;2023-12-22T12:41:13;1.77;;;0.70;;
15645;SDS011;7922;43.622;1.476;2023-12-22T12:43:41;1.27;;;0.70;;
15645;SDS011;7922;43.622;1.476;2023-12-22T12:46:07;0.83;;;0.70;;
15645;SDS011;7922;43.622;1.476;2023-12-22T12:48:33;0.97;;;0.60;;
15645;SDS011;7922;43.622;1.476;2023-12-22T12:51:04;1.40;;;0.70;;
15645;SDS011;7922;43.622;1.476;2023-12-22T12:53:31;0.70;;;0.70;;
15645;SDS011;7922;43.622;1.476;2023-12-22T12:55:56;2.63;;;0.50;;
15645;SDS011;7922;43.622;1.476;2023-12-22T12:58:26;1.53;;;0.73;;
15645;SDS011;7922;43.622;1.476;2023-12-22T13:00:52;0.63;;;0.60;;
15645;SDS011;7922;43.622;1.476;2023-12-22T13:03:28;0.73;;;0.67;;
15645;SDS011;7922;43.622;1.476;2023-12-22T13:05:59;1.13;;;0.70;;
15645;SDS011;7922;43.622;1.476;2023-12-22T13:08:31;0.67;;;0.67;;
15645;SDS011;7922;43.622;1.476;2023-12-22T13:10:59;0.60;;;0.60;;
15645;SDS011;7922;43.622;1.476;2023-12-22T13:13:25;1.23;;;0.70;;
15645;SDS011;7922;43.622;1.476;2023-12-22T13:15:50;1.27;;;0.80;;
15645;SDS011;7922;43.622;1.476;2023-12-22T13:18:16;0.70;;;0.70;;
15645;SDS011;7922;43.622;1.476;2023-12-22T13:20:41;1.00;;;0.70;;
15645;SDS011;7922;43.622;1.476;2023-12-22T13:23:07;1.23;;;0.80;;
15645;SDS011;7922;43.622;1.476;2023-12-22T13:25:39;1.73;;;0.90;;
15645;SDS011;7922;43.622;1.476;2023-12-22T13:28:05;1.60;;;0.90;;
15645;SDS011;7922;43.622;1.476;2023-12-22T13:30:33;1.13;;;0.80;;
15645;SDS011;7922;43.622;1.476;2023-12-22T13:33:01;1.00;;;0.80;;
15645;SDS011;7922;43.622;1.476;2023-12-22T13:35:27;1.17;;;0.60;;
15645;SDS011;7922;43.622;1.476;2023-12-22T13:37:52;1.47;;;0.90;;
15645;SDS011;7922;43.622;1.476;2023-12-22T13:40:18;1.40;;;1.00;;
15645;SDS011;7922;43.622;1.476;2023-12-22T13:42:44;1.67;;;1.07;;
15645;SDS011;7922;43.622;1.476;2023-12-22T13:45:12;0.60;;;0.60;;
15645;SDS011;7922;43.622;1.476;2023-12-22T13:47:41;1.27;;;1.10;;
15645;SDS011;7922;43.622;1.476;2023-12-22T13:50:13;1.10;;;0.70;;
15645;SDS011;7922;43.622;1.476;2023-12-22T13:52:39;2.23;;;1.07;;
15645;SDS011;7922;43.622;1.476;2023-12-22T13:55:11;1.20;;;0.90;;
15645;SDS011;7922;43.622;1.476;2023-12-22T13:57:37;1.63;;;1.00;;
15645;SDS011;7922;43.622;1.476;2023-12-22T14:00:24;2.83;;;0.90;;
15645;SDS011;7922;43.622;1.476;2023-12-22T14:02:48;1.30;;;1.20;;
15645;SDS011;7922;43.622;1.476;2023-12-22T14:05:14;1.30;;;1.20;;
15645;SDS011;7922;43.622;1.476;2023-12-22T14:07:40;1.03;;;0.90;;
15645;SDS011;7922;43.622;1.476;2023-12-22T14:10:06;1.17;;;0.90;;
15645;SDS011;7922;43.622;1.476;2023-12-22T14:12:32;2.03;;;0.70;;
15645;SDS011;7922;43.622;1.476;2023-12-22T14:14:57;0.50;;;0.50;;
15645;SDS011;7922;43.622;1.476;2023-12-22T14:17:22;0.83;;;0.70;;
15645;SDS011;7922;43.622;1.476;2023-12-22T14:19:47;0.67;;;0.67;;
15645;SDS011;7922;43.622;1.476;2023-12-22T14:22:13;1.40;;;0.60;;
15645;SDS011;7922;43.622;1.476;2023-12-22T14:24:38;1.13;;;0.70;;
15645;SDS011;7922;43.622;1.476;2023-12-22T14:27:03;1.37;;;0.87;;
15645;SDS011;7922;43.622;1.476;2023-12-22T14:29:29;0.73;;;0.73;;
15645;SDS011;7922;43.622;1.476;2023-12-22T14:31:54;1.10;;;1.00;;
15645;SDS011;7922;43.622;1.476;2023-12-22T14:34:19;1.80;;;0.83;;
15645;SDS011;7922;43.622;1.476;2023-12-22T14:36:45;1.43;;;1.10;;
15645;SDS011;7922;43.622;1.476;2023-12-22T14:39:10;1.33;;;0.80;;
15645;SDS011;7922;43.622;1.476;2023-12-22T14:41:36;2.80;;;1.23;;
15645;SDS011;7922;43.622;1.476;2023-12-22T14:44:01;1.10;;;1.00;;
15645;SDS011;7922;43.622;1.476;2023-12-22T14:46:26;1.00;;;0.77;;
15645;SDS011;7922;43.622;1.476;2023-12-22T14:48:51;2.53;;;1.13;;
15645;SDS011;7922;43.622;1.476;2023-12-22T14:51:17;4.17;;;2.60;;
15645;SDS011;7922;43.622;1.476;2023-12-22T14:53:42;1.73;;;1.63;;
15645;SDS011;7922;43.622;1.476;2023-12-22T14:56:07;2.37;;;1.70;;
15645;SDS011;7922;43.622;1.476;2023-12-22T14:58:32;1.87;;;1.40;;
15645;SDS011;7922;43.622;1.476;2023-12-22T15:00:58;1.90;;;1.47;;